Time;durP1;ratioP1;P1;durP2;ratioP2;P2;SDS_P1;SDS_P2;PMS_P1;PMS_P2;Temp;Humidity;BMP_temperature;BMP_pressure;BME280_temperature;BME280_humidity;BME280_pressure;Samples;Min_cycle;Max_cycle;Signal;HPM_P1;HPM_P2
2021/08/27 00:01:17;;;;;;;8.40;5.47;;;16.60;76.70;;;;;;6273302;28;20501;-76
2021/08/27 00:04:20;;;;;;;7.97;4.45;;;16.60;76.90;;;;;;6273184;28;20441;-76
2021/08/27 00:07:22;;;;;;;5.07;3.77;;;16.60;76.80;;;;;;6247417;28;20471;-77
2021/08/27 00:10:24;;;;;;;9.32;4.18;;;16.60;77.20;;;;;;6248751;28;21016;-76
2021/08/27 00:13:26;;;;;;;6.72;4.45;;;16.50;76.40;;;;;;6248212;28;20477;-75
2021/08/27 00:16:28;;;;;;;8.10;4.45;;;16.60;77.00;;;;;;6248204;28;20469;-75
2021/08/27 00:19:31;;;;;;;7.90;3.77;;;16.60;76.80;;;;;;6248058;28;20477;-76
2021/08/27 00:22:33;;;;;;;6.25;4.30;;;16.60;77.00;;;;;;6248220;28;20503;-76
2021/08/27 00:25:35;;;;;;;7.38;4.20;;;16.60;77.20;;;;;;6248265;28;20513;-76
2021/08/27 00:28:37;;;;;;;6.95;3.88;;;16.60;77.00;;;;;;6248056;28;20932;-76
2021/08/27 00:31:39;;;;;;;7.20;4.38;;;16.60;76.90;;;;;;6247131;28;20853;-76
2021/08/27 00:34:42;;;;;;;8.50;4.45;;;16.50;76.90;;;;;;6247489;28;20568;-77
2021/08/27 00:37:44;;;;;;;9.63;4.65;;;16.50;76.90;;;;;;6248334;28;20472;-76
2021/08/27 00:40:46;;;;;;;8.15;4.47;;;16.60;77.00;;;;;;6247709;28;20875;-76
2021/08/27 00:43:48;;;;;;;8.05;4.43;;;16.50;77.30;;;;;;6247642;28;20986;-76
2021/08/27 00:46:50;;;;;;;6.20;4.03;;;17.10;77.60;;;;;;6247260;28;20446;-76
2021/08/27 00:49:53;;;;;;;7.85;4.80;;;16.60;77.30;;;;;;6250623;28;20455;-76
2021/08/27 00:52:55;;;;;;;7.13;3.83;;;16.60;77.50;;;;;;6248085;28;20590;-76
2021/08/27 00:55:57;;;;;;;6.10;3.85;;;17.20;77.30;;;;;;6247145;28;20500;-76
2021/08/27 00:59:00;;;;;;;8.02;4.15;;;16.60;76.80;;;;;;6247732;28;20943;-76
2021/08/27 01:02:02;;;;;;;5.38;3.60;;;16.60;77.10;;;;;;6247480;28;20953;-76
2021/08/27 01:05:08;;;;;;;6.60;3.80;;;16.60;77.10;;;;;;6246953;28;20525;-76
2021/08/27 01:08:17;;;;;;;6.77;3.70;;;16.70;76.60;;;;;;6247105;28;20572;-76
2021/08/27 01:11:27;;;;;;;8.52;4.03;;;16.70;76.30;;;;;;6247394;28;20607;-76
2021/08/27 01:14:35;;;;;;;6.50;3.83;;;16.70;76.40;;;;;;6247329;28;20625;-76
2021/08/27 01:17:41;;;;;;;6.40;3.60;;;17.20;76.20;;;;;;6246943;28;20513;-77
2021/08/27 01:21:13;;;;;;;6.95;4.70;;;16.70;76.50;;;;;;6246976;28;20512;-76
2021/08/27 01:24:17;;;;;;;9.10;4.35;;;16.70;77.10;;;;;;6246596;28;20685;-77
2021/08/27 01:27:20;;;;;;;10.02;3.88;;;16.70;77.30;;;;;;6246884;28;20578;-76
2021/08/27 01:30:30;;;;;;;8.10;3.83;;;16.70;76.90;;;;;;6247050;28;20644;-76
2021/08/27 01:33:35;;;;;;;10.85;3.90;;;16.70;76.50;;;;;;6246451;28;20499;-76
2021/08/27 01:36:40;;;;;;;10.35;4.15;;;16.70;76.80;;;;;;6246238;28;20862;-75
2021/08/27 01:39:45;;;;;;;7.10;3.80;;;16.70;77.20;;;;;;6246487;28;20471;-77
2021/08/27 01:42:48;;;;;;;9.60;3.93;;;16.70;77.60;;;;;;6244954;28;21025;-76
2021/08/27 01:45:50;;;;;;;7.00;4.87;;;16.70;78.00;;;;;;6246835;28;20468;-76
2021/08/27 01:48:53;;;;;;;8.35;4.53;;;16.70;77.60;;;;;;6246090;28;20429;-77
2021/08/27 01:51:59;;;;;;;7.97;3.70;;;16.70;77.80;;;;;;6245857;28;20446;-76
2021/08/27 01:55:02;;;;;;;10.77;4.80;;;16.70;77.70;;;;;;6245807;28;20467;-75
2021/08/27 01:58:05;;;;;;;7.72;4.20;;;16.70;77.80;;;;;;6246242;28;20531;-76
2021/08/27 02:01:07;;;;;;;6.47;4.45;;;16.70;78.10;;;;;;6245633;28;20554;-76
2021/08/27 02:04:14;;;;;;;11.45;6.88;;;16.70;77.80;;;;;;6245881;28;20415;-76
2021/08/27 02:07:18;;;;;;;9.35;4.40;;;16.70;78.50;;;;;;6245887;28;20548;-76
2021/08/27 02:10:20;;;;;;;10.35;4.15;;;16.60;79.60;;;;;;6246050;28;20517;-76
2021/08/27 02:13:23;;;;;;;9.40;4.65;;;16.60;79.50;;;;;;6245672;28;20496;-76
2021/08/27 02:16:25;;;;;;;11.23;4.80;;;16.60;79.90;;;;;;6245433;28;20471;-76
2021/08/27 02:19:27;;;;;;;9.90;4.70;;;16.60;80.40;;;;;;6245458;28;21055;-77
2021/08/27 02:22:33;;;;;;;6.07;4.20;;;16.60;80.80;;;;;;6245754;28;20434;-76
2021/08/27 02:25:38;;;;;;;9.82;5.00;;;16.60;78.80;;;;;;6245649;28;20490;-77
2021/08/27 02:28:43;;;;;;;10.23;4.82;;;16.60;78.60;;;;;;6245160;28;20427;-76
2021/08/27 02:31:46;;;;;;;12.15;4.32;;;16.60;78.60;;;;;;6245051;28;20430;-76
2021/08/27 02:34:49;;;;;;;8.50;4.63;;;16.70;79.30;;;;;;6244797;28;20634;-76
2021/08/27 02:37:52;;;;;;;10.13;5.10;;;17.00;79.80;;;;;;6245746;28;20441;-76
2021/08/27 02:40:54;;;;;;;9.77;5.60;;;16.40;81.10;;;;;;6245168;28;20563;-76
2021/08/27 02:43:56;;;;;;;8.20;5.90;;;16.20;82.20;;;;;;6245121;28;20502;-76
2021/08/27 02:46:57;;;;;;;8.57;5.68;;;16.50;83.40;;;;;;6244914;28;20423;-76
2021/08/27 02:50:00;;;;;;;10.88;5.70;;;16.10;83.90;;;;;;6245661;28;20516;-76
2021/08/27 02:53:08;;;;;;;9.35;5.85;;;16.00;84.00;;;;;;6244593;28;20423;-76
2021/08/27 02:56:16;;;;;;;11.27;6.13;;;16.00;84.20;;;;;;6244627;28;20476;-75
2021/08/27 02:59:21;;;;;;;9.93;6.03;;;16.00;84.30;;;;;;6245041;28;20446;-76
2021/08/27 03:02:23;;;;;;;11.75;5.63;;;16.00;84.00;;;;;;6245154;28;20609;-76
2021/08/27 03:05:31;;;;;;;11.15;5.35;;;16.00;84.10;;;;;;6244517;28;20788;-76
2021/08/27 03:08:38;;;;;;;11.38;5.28;;;16.10;84.40;;;;;;6244922;28;20476;-77
2021/08/27 03:11:44;;;;;;;17.55;5.32;;;15.90;84.00;;;;;;6244745;28;20477;-76
2021/08/27 03:14:53;;;;;;;13.37;5.93;;;15.90;83.80;;;;;;6244378;28;20486;-76
2021/08/27 03:17:59;;;;;;;8.25;4.78;;;15.90;83.70;;;;;;6245210;28;20566;-76
2021/08/27 03:21:11;;;;;;;9.23;6.00;;;16.30;84.20;;;;;;6244533;28;20524;-75
2021/08/27 03:24:18;;;;;;;9.85;5.32;;;15.00;84.20;;;;;;6244528;28;20460;-76
2021/08/27 03:27:23;;;;;;;7.75;4.70;;;15.90;84.20;;;;;;6244502;28;20482;-76
2021/08/27 03:30:28;;;;;;;7.85;4.72;;;15.90;84.30;;;;;;6245559;28;20485;-76
2021/08/27 03:33:32;;;;;;;5.53;4.93;;;15.90;83.80;;;;;;6244415;28;20557;-76
2021/08/27 03:36:34;;;;;;;9.50;5.63;;;15.90;83.70;;;;;;6244185;28;20543;-76
2021/08/27 03:39:38;;;;;;;11.23;5.28;;;16.20;84.60;;;;;;6244477;28;20438;-75
2021/08/27 03:42:40;;;;;;;8.45;4.80;;;16.00;84.00;;;;;;6244270;28;20476;-75
2021/08/27 03:45:42;;;;;;;8.05;4.82;;;16.00;84.20;;;;;;6244449;28;20468;-76
2021/08/27 03:48:45;;;;;;;5.47;4.63;;;16.00;84.10;;;;;;6244213;28;20563;-75
2021/08/27 03:51:47;;;;;;;7.28;5.25;;;16.00;83.90;;;;;;6244058;28;20940;-76
2021/08/27 03:54:50;;;;;;;8.18;4.78;;;16.00;83.80;;;;;;6243837;28;20530;-76
2021/08/27 03:57:54;;;;;;;8.32;4.40;;;15.90;83.30;;;;;;6244632;28;20508;-75
2021/08/27 04:00:58;;;;;;;7.22;4.07;;;16.00;83.10;;;;;;6244157;28;20571;-76
2021/08/27 04:04:00;;;;;;;8.73;4.82;;;16.00;83.40;;;;;;6244041;28;20464;-75
2021/08/27 04:07:03;;;;;;;11.15;5.10;;;15.90;83.70;;;;;;6247280;28;20507;-75
2021/08/27 04:10:08;;;;;;;9.10;4.70;;;15.90;83.90;;;;;;6249190;28;20506;-75
2021/08/27 04:13:11;;;;;;;9.80;5.03;;;15.90;83.60;;;;;;6248350;28;20547;-76
2021/08/27 04:16:13;;;;;;;11.32;6.13;;;16.10;83.90;;;;;;6248174;28;20452;-76
2021/08/27 04:19:15;;;;;;;7.38;4.70;;;15.90;83.80;;;;;;6248398;28;20887;-75
2021/08/27 04:22:17;;;;;;;7.82;5.43;;;15.90;83.20;;;;;;6248949;28;20472;-75
2021/08/27 04:25:20;;;;;;;12.85;4.93;;;15.90;83.90;;;;;;6248080;28;20489;-75
2021/08/27 04:28:22;;;;;;;8.23;5.33;;;15.90;83.60;;;;;;6248378;28;20494;-76
2021/08/27 04:31:24;;;;;;;9.52;5.07;;;15.90;83.20;;;;;;6248151;28;20996;-75
2021/08/27 04:34:26;;;;;;;10.65;5.43;;;15.90;83.10;;;;;;6249114;28;20995;-75
2021/08/27 04:37:28;;;;;;;5.65;4.82;;;15.90;83.10;;;;;;6248880;28;20837;-76
2021/08/27 04:40:32;;;;;;;13.85;5.68;;;15.90;83.30;;;;;;6248995;28;20446;-76
2021/08/27 04:43:34;;;;;;;8.10;5.85;;;15.90;84.00;;;;;;6249167;28;20460;-74
2021/08/27 04:46:36;;;;;;;10.93;5.47;;;16.30;83.70;;;;;;6250189;28;20528;-76
2021/08/27 04:49:38;;;;;;;8.25;5.45;;;15.90;83.30;;;;;;6247842;28;20517;-76
2021/08/27 04:52:40;;;;;;;7.88;5.15;;;16.00;83.50;;;;;;6247225;28;20419;-76
2021/08/27 04:55:44;;;;;;;10.85;5.57;;;16.00;83.90;;;;;;6247243;28;20536;-75
2021/08/27 04:58:46;;;;;;;8.23;4.78;;;16.00;83.80;;;;;;6247194;28;20441;-75
2021/08/27 05:01:47;;;;;;;9.15;5.18;;;16.40;83.70;;;;;;6247787;28;20517;-76
2021/08/27 05:04:49;;;;;;;9.55;5.40;;;16.00;83.70;;;;;;6246822;28;20419;-75
2021/08/27 05:07:51;;;;;;;5.38;4.78;;;16.00;83.60;;;;;;6247531;28;20538;-76
2021/08/27 05:10:55;;;;;;;6.43;5.07;;;16.00;83.40;;;;;;6247181;28;20414;-76
2021/08/27 05:13:56;;;;;;;8.48;4.90;;;16.10;84.20;;;;;;6247366;28;20912;-76
2021/08/27 05:16:58;;;;;;;7.17;5.80;;;15.90;84.30;;;;;;6246322;28;20488;-75
2021/08/27 05:20:00;;;;;;;11.38;6.40;;;16.00;83.50;;;;;;6246790;28;20518;-75
2021/08/27 05:23:02;;;;;;;7.20;5.53;;;16.00;83.70;;;;;;6246876;28;20501;-75
2021/08/27 05:26:05;;;;;;;5.95;4.45;;;15.80;84.80;;;;;;6246792;28;20429;-75
2021/08/27 05:29:07;;;;;;;9.27;5.82;;;15.70;84.50;;;;;;6246657;28;20506;-76
2021/08/27 05:32:09;;;;;;;7.20;5.60;;;15.70;83.50;;;;;;6244612;28;20492;-75
2021/08/27 05:35:11;;;;;;;8.93;6.20;;;15.70;84.40;;;;;;6246076;28;20407;-75
2021/08/27 05:38:13;;;;;;;10.83;5.70;;;15.70;84.60;;;;;;6246764;28;20529;-75
2021/08/27 05:41:16;;;;;;;14.82;6.10;;;15.80;84.20;;;;;;6246280;28;20564;-75
2021/08/27 05:44:18;;;;;;;9.00;5.53;;;16.00;84.00;;;;;;6246050;28;20617;-76
2021/08/27 05:47:20;;;;;;;9.65;4.80;;;16.10;84.10;;;;;;6246294;28;20425;-75
2021/08/27 05:50:22;;;;;;;7.15;5.20;;;16.60;84.00;;;;;;6246722;28;20466;-75
2021/08/27 05:53:24;;;;;;;8.45;6.15;;;16.20;83.40;;;;;;6246141;28;20848;-75
2021/08/27 05:56:27;;;;;;;6.10;5.22;;;16.20;82.50;;;;;;6245487;28;20972;-76
2021/08/27 05:59:29;;;;;;;8.55;5.70;;;16.50;83.00;;;;;;6245963;28;20456;-76
2021/08/27 06:02:31;;;;;;;7.87;5.03;;;16.40;83.30;;;;;;6246048;28;20516;-76
2021/08/27 06:05:32;;;;;;;9.23;5.40;;;16.50;82.70;;;;;;6239413;28;20426;-76
2021/08/27 06:08:35;;;;;;;6.03;4.40;;;16.70;81.60;;;;;;6263463;28;20445;-76
2021/08/27 06:11:38;;;;;;;11.93;5.22;;;17.00;80.00;;;;;;6245590;28;20423;-76
2021/08/27 06:14:40;;;;;;;7.22;4.20;;;17.20;78.10;;;;;;6262152;28;20514;-76
2021/08/27 06:17:42;;;;;;;6.13;4.10;;;18.00;78.90;;;;;;6271043;28;20457;-77
2021/08/27 06:20:43;;;;;;;5.33;4.47;;;17.60;78.30;;;;;;6271249;28;20559;-76
2021/08/27 06:23:45;;;;;;;6.63;3.95;;;18.10;78.00;;;;;;6250106;28;20500;-77
2021/08/27 06:26:48;;;;;;;5.85;4.28;;;17.90;77.30;;;;;;6245659;28;20983;-76
2021/08/27 06:29:50;;;;;;;9.23;4.07;;;17.90;76.90;;;;;;6245141;28;20577;-76
2021/08/27 06:32:52;;;;;;;7.25;3.97;;;18.00;76.90;;;;;;6245076;28;20890;-76
2021/08/27 06:35:54;;;;;;;6.00;4.57;;;18.00;76.60;;;;;;6244950;28;20562;-76
2021/08/27 06:38:56;;;;;;;8.63;4.22;;;18.20;75.80;;;;;;6250841;28;20462;-76
2021/08/27 06:41:59;;;;;;;8.25;4.05;;;18.50;73.90;;;;;;6270037;28;20994;-76
2021/08/27 06:45:01;;;;;;;7.40;4.18;;;18.90;73.10;;;;;;6269453;28;20413;-76
2021/08/27 06:48:03;;;;;;;7.28;3.75;;;19.20;71.40;;;;;;6269848;28;20824;-76
2021/08/27 06:51:05;;;;;;;7.03;3.65;;;19.30;71.70;;;;;;6269639;28;20441;-76
2021/08/27 06:54:07;;;;;;;5.23;3.83;;;19.60;69.30;;;;;;6270350;28;20564;-76
2021/08/27 06:57:10;;;;;;;7.20;4.05;;;20.00;69.40;;;;;;6269447;28;20500;-76
2021/08/27 07:00:13;;;;;;;7.40;3.78;;;20.50;66.60;;;;;;6269938;28;20506;-76
2021/08/27 07:03:15;;;;;;;6.40;3.00;;;21.00;63.30;;;;;;6270262;28;20443;-77
2021/08/27 07:06:17;;;;;;;5.20;2.95;;;21.30;63.70;;;;;;6269583;28;20486;-76
2021/08/27 07:09:19;;;;;;;6.80;3.20;;;21.60;62.20;;;;;;6269440;28;20443;-77
2021/08/27 07:12:22;;;;;;;5.45;2.95;;;21.60;61.00;;;;;;6269367;28;20498;-76
2021/08/27 07:15:25;;;;;;;4.68;3.15;;;21.30;60.60;;;;;;6219845;28;20925;-76
2021/08/27 07:18:27;;;;;;;5.80;3.20;;;21.30;62.10;;;;;;6220762;28;20579;-77
2021/08/27 07:21:29;;;;;;;6.68;3.35;;;20.60;63.00;;;;;;6220486;28;20892;-77
2021/08/27 07:24:31;;;;;;;7.55;3.42;;;20.30;65.10;;;;;;6220660;28;20420;-77
2021/08/27 07:27:34;;;;;;;6.25;3.88;;;19.90;65.60;;;;;;6220788;28;20835;-76
2021/08/27 07:30:36;;;;;;;10.10;3.90;;;19.70;66.30;;;;;;6221258;28;20511;-76
2021/08/27 07:33:38;;;;;;;7.38;3.97;;;19.60;65.40;;;;;;6220606;28;20437;-76
2021/08/27 07:36:41;;;;;;;4.83;3.40;;;19.40;64.90;;;;;;6220196;28;20498;-76
2021/08/27 07:39:43;;;;;;;5.83;3.47;;;19.30;65.60;;;;;;6220149;28;20499;-76
2021/08/27 07:42:46;;;;;;;5.72;4.07;;;19.60;66.80;;;;;;6224906;28;20432;-76
2021/08/27 07:45:54;;;;;;;6.03;3.60;;;19.10;66.30;;;;;;6224726;28;20537;-76
2021/08/27 07:48:55;;;;;;;6.87;3.83;;;19.00;66.70;;;;;;6224985;28;20424;-76
2021/08/27 07:51:57;;;;;;;3.88;3.50;;;19.10;67.20;;;;;;6224517;28;20515;-76
2021/08/27 07:54:59;;;;;;;6.28;3.65;;;19.40;67.00;;;;;;6225348;28;20476;-78
2021/08/27 07:58:02;;;;;;;4.40;2.75;;;19.90;64.10;;;;;;6229343;28;20471;-77
2021/08/27 08:01:04;;;;;;;4.13;2.60;;;20.50;62.20;;;;;;6228676;28;20413;-78
2021/08/27 08:04:06;;;;;;;5.20;2.55;;;21.20;59.70;;;;;;6226661;28;20436;-77
2021/08/27 08:07:08;;;;;;;6.07;2.80;;;21.50;56.70;;;;;;6228100;28;20412;-79
2021/08/27 08:10:11;;;;;;;2.80;2.20;;;21.90;54.40;;;;;;6227451;28;20521;-77
2021/08/27 08:13:14;;;;;;;3.58;2.20;;;22.20;54.20;;;;;;6241069;28;20498;-78
2021/08/27 08:16:16;;;;;;;4.75;2.00;;;22.50;53.90;;;;;;6278114;28;20413;-78
2021/08/27 08:19:18;;;;;;;5.03;2.22;;;22.80;54.00;;;;;;6277988;28;20555;-78
2021/08/27 08:22:21;;;;;;;4.77;2.40;;;23.10;53.50;;;;;;6271957;28;20438;-78
2021/08/27 08:25:23;;;;;;;6.22;2.03;;;22.90;51.80;;;;;;6225981;28;20430;-79
2021/08/27 08:28:26;;;;;;;7.25;1.95;;;23.10;52.00;;;;;;6228795;28;20488;-78
2021/08/27 08:31:29;;;;;;;6.83;1.70;;;23.60;50.60;;;;;;6229161;28;20417;-78
2021/08/27 08:34:31;;;;;;;4.70;2.22;;;24.20;48.70;;;;;;6229371;28;20440;-79
2021/08/27 08:37:33;;;;;;;4.47;1.60;;;24.30;47.40;;;;;;6204634;28;20414;-78
2021/08/27 08:40:39;;;;;;;5.90;2.20;;;23.80;48.00;;;;;;6209094;28;20505;-77
2021/08/27 08:43:42;;;;;;;3.33;1.50;;;23.60;48.30;;;;;;6209337;28;20418;-77
2021/08/27 08:46:47;;;;;;;4.57;2.00;;;23.50;48.60;;;;;;6201133;28;20470;-78
2021/08/27 08:49:51;;;;;;;4.65;1.90;;;22.80;50.30;;;;;;6200226;28;20448;-77
2021/08/27 08:52:53;;;;;;;2.78;1.50;;;23.00;49.20;;;;;;6200254;28;20434;-79
2021/08/27 08:55:55;;;;;;;2.88;2.00;;;22.90;47.80;;;;;;6201277;28;20496;-78
2021/08/27 08:58:59;;;;;;;3.17;1.30;;;22.90;48.90;;;;;;6204772;28;20413;-78
2021/08/27 09:02:01;;;;;;;2.75;1.63;;;23.40;47.80;;;;;;6224938;28;20440;-78
2021/08/27 09:05:04;;;;;;;4.65;1.70;;;23.50;46.40;;;;;;6224198;28;20511;-77
2021/08/27 09:08:06;;;;;;;3.58;1.55;;;23.40;46.30;;;;;;6224865;28;20424;-78
2021/08/27 09:11:19;;;;;;;4.23;1.53;;;23.60;45.80;;;;;;6224887;28;20416;-78
2021/08/27 09:14:28;;;;;;;5.35;1.77;;;23.90;46.10;;;;;;6257003;28;21129;-77
2021/08/27 09:17:31;;;;;;;3.38;1.80;;;24.30;45.10;;;;;;6273378;28;20439;-78
2021/08/27 09:20:33;;;;;;;3.10;1.65;;;24.60;44.90;;;;;;6273484;28;20440;-78
2021/08/27 09:23:35;;;;;;;4.85;1.23;;;25.10;43.30;;;;;;6267611;28;20616;-78
2021/08/27 09:26:37;;;;;;;3.22;1.50;;;25.50;41.10;;;;;;6224023;28;20508;-79
2021/08/27 09:29:42;;;;;;;6.22;1.85;;;25.90;41.70;;;;;;6225483;28;20428;-78
2021/08/27 09:32:44;;;;;;;4.15;1.67;;;26.40;40.90;;;;;;6225018;28;20417;-79
2021/08/27 09:35:57;;;;;;;5.05;1.38;;;26.10;39.40;;;;;;6224276;28;20428;-78
2021/08/27 09:39:06;;;;;;;3.92;1.85;;;25.50;40.80;;;;;;6224805;28;20417;-79
2021/08/27 09:42:08;;;;;;;4.43;1.42;;;24.90;41.30;;;;;;6224124;28;20436;-78
2021/08/27 09:45:12;;;;;;;5.93;1.70;;;24.40;43.00;;;;;;6223601;28;20421;-79
2021/08/27 09:48:14;;;;;;;3.83;1.60;;;23.90;45.10;;;;;;6223443;28;20906;-78
2021/08/27 09:51:16;;;;;;;4.43;1.40;;;23.50;44.50;;;;;;6223068;28;20421;-78
2021/08/27 09:54:22;;;;;;;3.92;1.85;;;23.10;46.30;;;;;;6223624;28;20432;-77
2021/08/27 09:57:28;;;;;;;2.30;1.15;;;22.80;47.20;;;;;;6223416;28;20818;-78
2021/08/27 10:00:34;;;;;;;4.50;1.80;;;22.60;49.20;;;;;;6223742;28;20975;-78
2021/08/27 10:03:38;;;;;;;5.53;1.63;;;22.50;49.00;;;;;;6221769;28;20416;-78
2021/08/27 10:06:40;;;;;;;5.70;1.58;;;22.40;48.60;;;;;;6222759;28;20596;-77
2021/08/27 10:09:46;;;;;;;5.57;2.30;;;22.40;48.60;;;;;;6223202;28;20439;-78
2021/08/27 10:12:49;;;;;;;2.50;1.52;;;22.60;48.60;;;;;;6229601;28;20409;-78
2021/08/27 10:15:53;;;;;;;3.40;1.60;;;22.90;48.70;;;;;;6272227;28;20417;-77
2021/08/27 10:18:55;;;;;;;1.95;1.42;;;23.30;48.00;;;;;;6272505;28;20468;-78
2021/08/27 10:21:57;;;;;;;4.43;2.17;;;23.30;47.80;;;;;;6272182;28;20531;-78
2021/08/27 10:25:05;;;;;;;4.78;1.50;;;23.40;47.60;;;;;;6261991;28;20463;-78
2021/08/27 10:28:08;;;;;;;3.38;1.80;;;23.70;45.90;;;;;;6224588;28;20424;-78
2021/08/27 10:31:12;;;;;;;4.47;1.85;;;24.20;45.60;;;;;;6222712;28;20428;-78
2021/08/27 10:34:15;;;;;;;4.60;1.60;;;24.50;44.10;;;;;;6223920;28;20543;-77
2021/08/27 10:37:41;;;;;;;3.40;1.40;;;25.00;43.60;;;;;;6223707;28;20574;-78
2021/08/27 10:40:43;;;;;;;3.97;1.80;;;25.90;41.10;;;;;;6223514;28;20409;-77
2021/08/27 10:43:56;;;;;;;2.58;1.52;;;26.50;39.60;;;;;;6224587;28;20440;-78
2021/08/27 10:47:08;;;;;;;6.82;1.83;;;26.40;39.30;;;;;;6222838;28;20980;-78
2021/08/27 10:50:10;;;;;;;3.78;1.65;;;26.00;38.70;;;;;;6224091;28;20516;-78
2021/08/27 10:53:30;;;;;;;4.43;1.70;;;25.70;39.30;;;;;;6222677;28;20618;-78
2021/08/27 10:56:47;;;;;;;4.75;1.77;;;25.40;39.50;;;;;;6223307;28;20409;-78
2021/08/27 10:59:49;;;;;;;3.50;2.00;;;24.90;41.10;;;;;;6223360;28;20968;-78
2021/08/27 11:02:54;;;;;;;2.03;1.45;;;24.40;44.20;;;;;;6223142;28;20428;-78
2021/08/27 11:05:56;;;;;;;3.38;1.83;;;23.90;45.30;;;;;;6221438;28;20998;-78
2021/08/27 11:09:20;;;;;;;1.83;1.40;;;23.40;47.60;;;;;;6222551;28;20559;-78
2021/08/27 11:12:30;;;;;;;4.95;1.80;;;22.80;51.40;;;;;;6222664;28;20463;-77
2021/08/27 11:15:31;;;;;;;3.70;1.88;;;22.30;53.50;;;;;;6274413;28;20488;-78
2021/08/27 11:18:35;;;;;;;3.50;2.33;;;21.80;54.40;;;;;;6276825;28;20515;-77
2021/08/27 11:21:39;;;;;;;2.63;1.90;;;21.50;55.80;;;;;;6276495;28;20429;-78
2021/08/27 11:24:42;;;;;;;3.55;2.40;;;21.30;55.40;;;;;;6276086;28;20417;-78
2021/08/27 11:28:16;;;;;;;5.13;2.37;;;21.30;55.00;;;;;;6254272;28;20529;-77
2021/08/27 11:31:18;;;;;;;5.40;2.33;;;21.40;55.60;;;;;;6252257;28;20426;-78
2021/08/27 11:34:24;;;;;;;2.80;1.70;;;21.60;54.40;;;;;;6252545;28;20636;-78
2021/08/27 11:37:30;;;;;;;3.58;2.00;;;21.80;52.10;;;;;;6251697;28;20498;-78
2021/08/27 11:40:33;;;;;;;3.70;2.17;;;22.20;50.10;;;;;;6252198;28;20773;-78
2021/08/27 11:43:43;;;;;;;4.88;2.40;;;22.40;49.50;;;;;;6252023;28;20500;-78
2021/08/27 11:46:48;;;;;;;2.35;2.15;;;22.60;50.70;;;;;;6251845;28;20437;-78
2021/08/27 11:49:58;;;;;;;3.05;1.70;;;22.70;50.30;;;;;;6252900;28;20793;-77
2021/08/27 11:53:01;;;;;;;4.25;2.25;;;22.90;48.20;;;;;;6275790;22;20439;-79
2021/08/27 11:56:03;;;;;;;3.08;2.20;;;23.10;48.20;;;;;;6254263;28;20980;-79
2021/08/27 11:59:05;;;;;;;5.30;2.10;;;23.40;47.70;;;;;;6254691;28;20460;-79
2021/08/27 12:02:16;;;;;;;4.13;2.58;;;23.60;47.80;;;;;;6254462;28;20435;-79
2021/08/27 12:05:19;;;;;;;4.85;2.40;;;23.80;47.10;;;;;;6264141;28;20500;-76
2021/08/27 12:08:28;;;;;;;4.85;2.28;;;23.90;46.10;;;;;;6271057;28;20402;-78
2021/08/27 12:11:30;;;;;;;4.05;2.00;;;23.80;45.60;;;;;;6253732;28;20415;-79
2021/08/27 12:14:49;;;;;;;4.80;2.42;;;23.60;47.20;;;;;;6254336;28;20920;-79
2021/08/27 12:17:56;;;;;;;3.38;1.85;;;23.50;46.90;;;;;;6254970;28;20469;-79
2021/08/27 12:21:00;;;;;;;5.33;2.43;;;23.40;46.70;;;;;;6253888;28;20897;-79
2021/08/27 12:24:07;;;;;;;5.38;2.05;;;23.20;47.20;;;;;;6253942;28;20502;-78
2021/08/27 12:27:09;;;;;;;5.85;2.22;;;23.20;47.00;;;;;;6251504;28;20430;-78
2021/08/27 12:30:13;;;;;;;3.00;1.90;;;23.00;47.90;;;;;;6253273;28;20430;-78
2021/08/27 12:33:15;;;;;;;4.32;2.22;;;22.80;48.80;;;;;;6253213;28;20994;-79
2021/08/27 12:36:18;;;;;;;3.57;2.27;;;22.60;49.50;;;;;;6252714;28;20477;-79
2021/08/27 12:39:20;;;;;;;4.80;2.72;;;22.60;49.30;;;;;;6253094;28;20477;-79
2021/08/27 12:42:22;;;;;;;4.47;2.65;;;22.80;49.70;;;;;;6254078;28;20430;-79
2021/08/27 12:45:24;;;;;;;3.83;2.10;;;23.10;48.50;;;;;;6253448;28;20425;-78
2021/08/27 12:48:28;;;;;;;9.25;2.58;;;23.40;47.90;;;;;;6252018;28;20466;-80
2021/08/27 12:51:31;;;;;;;3.95;2.17;;;23.70;46.10;;;;;;6252352;28;20565;-79
2021/08/27 12:54:40;;;;;;;5.83;2.30;;;24.00;45.20;;;;;;6253554;28;20573;-79
2021/08/27 12:57:47;;;;;;;6.90;2.33;;;24.30;44.40;;;;;;6252998;28;20435;-78
2021/08/27 13:00:49;;;;;;;4.57;2.22;;;24.70;44.30;;;;;;6252115;28;20938;-80
2021/08/27 13:03:53;;;;;;;3.77;1.97;;;24.90;43.00;;;;;;6251489;28;21056;-79
2021/08/27 13:06:56;;;;;;;3.38;2.13;;;24.90;42.00;;;;;;6250138;28;20407;-77
2021/08/27 13:10:13;;;;;;;5.53;1.70;;;25.00;42.30;;;;;;6252274;28;20530;-80
2021/08/27 13:13:24;;;;;;;4.25;2.30;;;25.20;40.70;;;;;;6252424;28;20501;-80
2021/08/27 13:16:26;;;;;;;3.17;1.97;;;25.40;41.30;;;;;;6252352;28;21003;-79
2021/08/27 13:19:51;;;;;;;4.87;1.97;;;25.50;41.40;;;;;;6252172;28;20450;-80
2021/08/27 13:22:54;;;;;;;4.55;2.17;;;25.60;41.60;;;;;;6252225;28;20493;-79
2021/08/27 13:25:58;;;;;;;4.22;2.35;;;25.60;41.80;;;;;;6252071;28;20488;-77
2021/08/27 13:29:00;;;;;;;3.97;2.43;;;25.50;41.50;;;;;;6248378;28;20418;-79
2021/08/27 13:32:03;;;;;;;2.97;2.22;;;25.40;41.60;;;;;;6252568;28;20450;-79
2021/08/27 13:35:05;;;;;;;4.70;2.05;;;25.30;42.20;;;;;;6254523;28;20423;-79
2021/08/27 13:38:09;;;;;;;2.83;2.33;;;25.10;41.80;;;;;;6254426;28;20498;-79
2021/08/27 13:41:10;;;;;;;3.25;2.10;;;25.00;41.50;;;;;;6253944;28;20415;-79
2021/08/27 13:44:12;;;;;;;4.15;1.67;;;24.90;42.80;;;;;;6254272;28;20986;-79
2021/08/27 13:47:14;;;;;;;7.37;2.37;;;24.90;43.20;;;;;;6249206;28;20485;-79
2021/08/27 13:50:16;;;;;;;5.37;2.30;;;25.00;42.00;;;;;;6246371;28;20506;-77
2021/08/27 13:53:19;;;;;;;3.30;1.80;;;23.10;41.40;;;;;;6245306;28;20480;-77
2021/08/27 13:56:21;;;;;;;3.38;1.65;;;25.40;41.30;;;;;;6245274;28;20420;-77
2021/08/27 13:59:23;;;;;;;2.90;2.15;;;25.40;40.60;;;;;;6246002;28;20492;-78
2021/08/27 14:02:25;;;;;;;3.28;1.75;;;25.40;41.00;;;;;;6246026;28;20437;-78
2021/08/27 14:05:27;;;;;;;3.95;2.30;;;25.20;41.30;;;;;;6245086;28;20555;-79
2021/08/27 14:08:32;;;;;;;3.95;1.95;;;24.70;42.50;;;;;;6245282;28;20438;-78
2021/08/27 14:11:34;;;;;;;2.47;1.80;;;24.50;41.70;;;;;;6245920;28;20444;-77
2021/08/27 14:14:35;;;;;;;4.33;1.77;;;24.40;43.20;;;;;;6244671;28;20481;-77
2021/08/27 14:17:37;;;;;;;2.53;1.93;;;24.20;44.70;;;;;;6245615;28;20470;-78
2021/08/27 14:20:44;;;;;;;6.00;2.35;;;24.20;44.30;;;;;;6245810;28;20423;-77
2021/08/27 14:23:48;;;;;;;4.55;1.70;;;24.30;43.50;;;;;;6245002;28;20419;-77
2021/08/27 14:26:50;;;;;;;2.72;2.00;;;24.50;42.90;;;;;;6244821;28;20497;-77
2021/08/27 14:29:53;;;;;;;6.00;2.25;;;24.70;41.70;;;;;;6243668;28;20518;-78
2021/08/27 14:32:55;;;;;;;4.10;2.58;;;24.70;42.10;;;;;;6244396;28;20422;-77
2021/08/27 14:35:57;;;;;;;2.85;2.33;;;24.90;40.70;;;;;;6244135;28;20419;-77
2021/08/27 14:39:00;;;;;;;3.40;1.95;;;25.10;41.30;;;;;;6244720;28;20538;-77
2021/08/27 14:42:02;;;;;;;3.85;2.17;;;25.20;41.10;;;;;;6244705;28;20431;-77
2021/08/27 14:45:06;;;;;;;3.00;1.90;;;25.50;40.60;;;;;;6244297;28;20421;-77
2021/08/27 14:48:08;;;;;;;2.20;1.70;;;25.70;40.40;;;;;;6244446;28;20427;-75
2021/08/27 14:51:10;;;;;;;2.03;1.80;;;25.80;41.10;;;;;;6244090;28;20580;-75
2021/08/27 14:54:13;;;;;;;3.08;2.13;;;25.90;40.90;;;;;;6244543;28;20466;-75
2021/08/27 14:57:15;;;;;;;2.63;2.05;;;26.00;40.10;;;;;;6244230;28;20479;-75
2021/08/27 15:00:17;;;;;;;2.00;1.67;;;25.80;39.80;;;;;;6244361;28;20453;-75
2021/08/27 15:03:19;;;;;;;3.70;2.55;;;25.80;41.20;;;;;;6244078;28;20427;-75
2021/08/27 15:06:21;;;;;;;3.85;1.80;;;25.60;41.70;;;;;;6244433;28;20462;-75
2021/08/27 15:09:27;;;;;;;4.55;2.00;;;25.60;41.30;;;;;;6244027;28;20446;-77
2021/08/27 15:12:29;;;;;;;3.08;2.05;;;25.40;41.80;;;;;;6244384;28;20419;-77
2021/08/27 15:15:30;;;;;;;4.25;2.47;;;25.20;41.50;;;;;;6243747;28;20423;-77
2021/08/27 15:18:32;;;;;;;3.17;1.95;;;25.10;44.00;;;;;;6244806;28;20441;-77
2021/08/27 15:21:36;;;;;;;2.92;2.30;;;24.80;44.00;;;;;;6244252;28;20419;-77
2021/08/27 15:24:39;;;;;;;4.82;2.13;;;24.70;42.70;;;;;;6243846;28;20428;-75
2021/08/27 15:27:41;;;;;;;3.45;2.13;;;24.50;42.30;;;;;;6243934;28;20486;-76
2021/08/27 15:30:43;;;;;;;2.70;2.13;;;24.50;44.70;;;;;;6241868;28;20563;-77
2021/08/27 15:33:45;;;;;;;4.80;2.22;;;24.30;44.10;;;;;;6235873;28;20552;-77
2021/08/27 15:36:47;;;;;;;2.88;1.92;;;24.10;43.30;;;;;;6224387;28;20475;-76
2021/08/27 15:39:50;;;;;;;4.00;2.28;;;24.00;44.30;;;;;;6222352;28;20401;-77
2021/08/27 15:42:52;;;;;;;5.10;2.30;;;23.70;45.90;;;;;;6219477;28;20526;-77
2021/08/27 15:45:54;;;;;;;3.40;2.30;;;23.40;46.10;;;;;;6219801;28;20930;-78
2021/08/27 15:48:55;;;;;;;3.97;2.10;;;23.20;46.90;;;;;;6219151;28;20496;-78
2021/08/27 15:51:57;;;;;;;3.53;2.15;;;23.20;49.10;;;;;;6219331;28;20417;-78
2021/08/27 15:55:01;;;;;;;3.92;1.98;;;22.80;48.20;;;;;;6219716;28;20417;-78